Time;durP1;ratioP1;P1;durP2;ratioP2;P2;SDS_P1;SDS_P2;PMS_P1;PMS_P2;Temp;Humidity;BMP_temperature;BMP_pressure;BME280_temperature;BME280_humidity;BME280_pressure;Samples;Min_cycle;Max_cycle;Signal;HPM_P1;HPM_P2
2023/09/10 00:01:07;;;;;;;46.55;40.85;;;18.80;99.90;;;;;;5098650;28;20058;-58
2023/09/10 00:03:33;;;;;;;46.83;40.58;;;18.80;99.90;;;;;;5100075;28;20032;-58
2023/09/10 00:05:59;;;;;;;48.38;41.72;;;18.80;99.90;;;;;;5099297;28;20047;-57
2023/09/10 00:08:26;;;;;;;48.92;42.10;;;18.80;99.90;;;;;;5099359;28;20044;-58
2023/09/10 00:10:51;;;;;;;49.05;42.47;;;18.80;99.90;;;;;;5099705;28;20048;-58
2023/09/10 00:13:17;;;;;;;50.83;43.42;;;18.80;99.90;;;;;;5098913;28;20047;-58
2023/09/10 00:15:43;;;;;;;47.60;42.38;;;18.80;99.90;;;;;;5099775;28;20047;-58
2023/09/10 00:18:09;;;;;;;50.08;43.65;;;18.70;99.90;;;;;;5098771;28;20039;-58
2023/09/10 00:20:34;;;;;;;47.50;41.63;;;18.70;99.90;;;;;;5099748;28;20051;-58
2023/09/10 00:23:00;;;;;;;47.95;42.03;;;18.70;99.90;;;;;;5099241;28;20069;-58
2023/09/10 00:25:26;;;;;;;47.85;41.40;;;18.70;99.90;;;;;;5099142;28;20135;-58
2023/09/10 00:27:52;;;;;;;44.85;38.72;;;18.70;99.90;;;;;;5099593;28;20392;-58
2023/09/10 00:30:18;;;;;;;50.22;42.15;;;18.70;99.90;;;;;;5098633;28;20051;-58
2023/09/10 00:32:44;;;;;;;48.40;42.65;;;18.70;99.90;;;;;;5099705;28;20047;-58
2023/09/10 00:35:09;;;;;;;50.95;42.63;;;18.70;99.90;;;;;;5098499;28;20052;-58
2023/09/10 00:37:35;;;;;;;48.03;40.80;;;18.60;99.90;;;;;;5099813;28;20444;-58
2023/09/10 00:40:01;;;;;;;51.00;42.58;;;18.60;99.90;;;;;;5098796;28;20055;-58
2023/09/10 00:42:26;;;;;;;49.05;40.75;;;18.60;99.90;;;;;;5099024;28;20054;-57
2023/09/10 00:44:52;;;;;;;48.00;41.60;;;18.60;99.90;;;;;;5099405;28;20067;-58
2023/09/10 00:47:18;;;;;;;47.28;40.05;;;18.60;99.90;;;;;;5098466;28;20047;-59
2023/09/10 00:49:44;;;;;;;46.78;39.70;;;18.50;99.90;;;;;;5098863;28;20036;-58
2023/09/10 00:52:11;;;;;;;47.58;41.40;;;18.60;99.90;;;;;;5098383;28;20147;-58
2023/09/10 00:54:37;;;;;;;47.70;41.38;;;18.50;99.90;;;;;;5099819;28;20052;-58
2023/09/10 00:57:03;;;;;;;44.85;39.47;;;18.50;99.90;;;;;;5097121;28;20296;-58
2023/09/10 00:59:30;;;;;;;45.30;39.35;;;18.50;99.90;;;;;;5099347;28;20048;-57
2023/09/10 01:01:58;;;;;;;46.85;40.28;;;18.50;99.90;;;;;;5099103;28;20050;-58
2023/09/10 01:04:23;;;;;;;45.00;38.72;;;18.50;99.90;;;;;;5098441;28;20044;-56
2023/09/10 01:06:52;;;;;;;47.08;41.28;;;18.50;99.90;;;;;;5099303;28;20095;-58
2023/09/10 01:09:18;;;;;;;49.05;41.30;;;18.50;99.90;;;;;;5098137;28;20072;-58
2023/09/10 01:12:20;;;;;;;47.33;41.00;;;18.50;99.90;;;;;;5099125;28;20051;-58
2023/09/10 01:15:03;;;;;;;;;;;18.50;99.90;;;;;;5099586;28;20048;-58
2023/09/10 01:17:49;;;;;;;47.22;39.97;;;18.50;99.90;;;;;;5101176;28;19927;-59
2023/09/10 01:20:49;;;;;;;48.45;41.38;;;18.40;99.90;;;;;;5103290;28;20036;-58
2023/09/10 01:23:36;;;;;;;47.20;40.35;;;18.40;99.90;;;;;;5101566;28;20051;-58
2023/09/10 01:26:02;;;;;;;48.33;42.03;;;18.40;99.90;;;;;;5101965;28;20048;-59
2023/09/10 01:28:28;;;;;;;47.58;40.90;;;18.30;99.90;;;;;;5101697;28;20048;-58
2023/09/10 01:30:55;;;;;;;46.95;40.42;;;18.30;99.90;;;;;;5101926;28;20458;-58
2023/09/10 01:33:29;;;;;;;50.33;43.22;;;18.30;99.90;;;;;;5103204;28;20048;-58
2023/09/10 01:36:08;;;;;;;49.35;43.08;;;18.30;99.90;;;;;;5102167;28;20047;-58
2023/09/10 01:38:52;;;;;;;51.85;41.63;;;18.20;99.90;;;;;;5101925;28;20047;-58
2023/09/10 01:41:19;;;;;;;49.63;42.58;;;18.20;99.90;;;;;;5102863;28;20048;-58
2023/09/10 01:43:46;;;;;;;49.15;43.63;;;18.20;99.90;;;;;;5101368;28;20044;-58
2023/09/10 01:46:12;;;;;;;51.05;43.55;;;18.10;99.90;;;;;;5102967;28;20062;-58
2023/09/10 01:48:39;;;;;;;53.58;44.13;;;18.10;99.90;;;;;;5101538;28;20036;-58
2023/09/10 01:51:05;;;;;;;48.75;41.33;;;18.10;99.90;;;;;;5102396;28;20065;-58
2023/09/10 01:53:30;;;;;;;50.25;44.15;;;18.10;99.90;;;;;;5100900;28;20032;-58
2023/09/10 01:55:56;;;;;;;51.67;44.58;;;18.10;99.90;;;;;;5117755;28;20054;-58
2023/09/10 01:58:23;;;;;;;49.60;44.22;;;18.20;99.90;;;;;;5122652;28;20032;-58
2023/09/10 02:00:48;;;;;;;52.40;43.60;;;18.10;99.90;;;;;;5121698;28;20104;-58
2023/09/10 02:03:14;;;;;;;48.75;42.03;;;18.10;99.90;;;;;;5122976;28;20055;-58
2023/09/10 02:05:43;;;;;;;48.20;41.78;;;18.10;99.90;;;;;;5121949;28;20054;-58
2023/09/10 02:08:09;;;;;;;49.60;43.08;;;18.10;99.90;;;;;;5122358;28;20051;-58
2023/09/10 02:10:35;;;;;;;49.70;42.97;;;18.10;99.90;;;;;;5122557;27;20119;-58
2023/09/10 02:13:01;;;;;;;48.47;42.10;;;18.10;99.90;;;;;;5121455;28;20380;-58
2023/09/10 02:15:27;;;;;;;47.70;42.50;;;18.10;99.90;;;;;;5120920;28;20052;-58
2023/09/10 02:17:53;;;;;;;48.55;41.78;;;18.10;99.90;;;;;;5121264;28;20069;-58
2023/09/10 02:20:19;;;;;;;50.97;43.00;;;18.00;99.90;;;;;;5122540;28;20046;-58
2023/09/10 02:22:45;;;;;;;50.83;42.10;;;18.00;99.90;;;;;;5121415;28;20043;-58
2023/09/10 02:25:10;;;;;;;50.50;42.53;;;18.00;99.90;;;;;;5122200;28;20123;-57
2023/09/10 02:27:36;;;;;;;49.50;42.35;;;18.00;99.90;;;;;;5120803;28;20157;-58
2023/09/10 02:30:03;;;;;;;50.60;42.70;;;18.00;99.90;;;;;;5121328;28;20047;-58
2023/09/10 02:32:30;;;;;;;48.53;41.03;;;18.00;99.90;;;;;;5122145;28;20040;-58
2023/09/10 02:34:56;;;;;;;47.05;40.38;;;18.00;99.90;;;;;;5120937;28;20113;-59
2023/09/10 02:37:22;;;;;;;48.50;42.90;;;17.90;99.90;;;;;;5122080;28;20043;-58
2023/09/10 02:39:47;;;;;;;46.95;41.80;;;17.90;99.90;;;;;;5119573;28;20043;-58
2023/09/10 02:42:13;;;;;;;50.75;41.85;;;17.90;99.90;;;;;;5121499;28;20070;-57
2023/09/10 02:44:39;;;;;;;48.38;42.60;;;17.90;99.90;;;;;;5121569;28;20047;-57
2023/09/10 02:47:04;;;;;;;45.20;40.30;;;17.90;99.90;;;;;;5121067;28;20071;-57
2023/09/10 02:49:30;;;;;;;46.75;39.92;;;17.80;99.90;;;;;;5121538;28;20043;-57
2023/09/10 02:51:56;;;;;;;43.88;39.05;;;17.90;99.90;;;;;;5120617;28;20509;-56
2023/09/10 02:54:21;;;;;;;44.10;38.58;;;17.80;99.90;;;;;;5118764;28;20507;-57
2023/09/10 02:56:50;;;;;;;43.58;38.83;;;17.90;99.90;;;;;;5100335;28;20592;-58
2023/09/10 02:59:26;;;;;;;44.75;38.97;;;17.90;99.90;;;;;;5101368;28;20039;-58
2023/09/10 03:01:54;;;;;;;42.50;37.90;;;17.80;99.90;;;;;;5101046;28;20578;-58
2023/09/10 03:04:20;;;;;;;43.45;38.70;;;17.90;99.90;;;;;;5099697;28;20048;-58
2023/09/10 03:06:49;;;;;;;41.20;36.03;;;17.80;99.90;;;;;;5101056;28;20055;-58
2023/09/10 03:09:15;;;;;;;41.42;36.83;;;17.80;99.90;;;;;;5099973;28;20044;-57
2023/09/10 03:11:42;;;;;;;42.75;37.60;;;17.80;99.90;;;;;;5101363;28;20044;-58
2023/09/10 03:14:09;;;;;;;42.95;37.05;;;17.80;99.90;;;;;;5099809;28;20519;-59
2023/09/10 03:16:36;;;;;;;42.42;37.47;;;17.80;99.90;;;;;;5100797;28;20535;-58
2023/09/10 03:19:02;;;;;;;43.50;38.13;;;17.90;99.90;;;;;;5100112;28;20051;-56
2023/09/10 03:21:28;;;;;;;41.35;36.78;;;17.80;99.90;;;;;;5099883;28;20526;-58
2023/09/10 03:23:56;;;;;;;40.03;35.72;;;17.80;99.90;;;;;;5100565;28;20040;-57
2023/09/10 03:26:21;;;;;;;40.50;36.05;;;17.80;99.90;;;;;;5099560;28;20092;-57
2023/09/10 03:28:47;;;;;;;41.17;36.47;;;17.80;99.90;;;;;;5100709;28;20040;-57
2023/09/10 03:31:13;;;;;;;40.03;34.33;;;17.80;99.90;;;;;;5099653;28;20040;-57
2023/09/10 03:33:40;;;;;;;39.92;34.15;;;17.70;99.90;;;;;;5100573;28;20500;-57
2023/09/10 03:36:06;;;;;;;39.95;35.05;;;17.80;99.90;;;;;;5100168;28;20055;-57
2023/09/10 03:38:31;;;;;;;42.55;36.13;;;17.70;99.90;;;;;;5099261;28;20541;-57
2023/09/10 03:40:57;;;;;;;40.72;35.92;;;17.70;99.90;;;;;;5100465;28;20104;-58
2023/09/10 03:43:23;;;;;;;42.15;36.00;;;17.70;99.90;;;;;;5098931;28;20048;-57
2023/09/10 03:45:49;;;;;;;41.80;34.97;;;17.70;99.90;;;;;;5100574;28;20029;-57
2023/09/10 03:48:14;;;;;;;41.67;36.97;;;17.70;99.90;;;;;;5099217;28;20043;-57
2023/09/10 03:50:40;;;;;;;43.53;36.22;;;17.70;99.90;;;;;;5100508;28;20797;-57
2023/09/10 03:53:06;;;;;;;41.00;34.42;;;17.70;99.90;;;;;;5099887;28;20052;-58
2023/09/10 03:55:32;;;;;;;40.28;34.88;;;17.60;99.90;;;;;;5112533;28;20051;-58
2023/09/10 03:57:58;;;;;;;41.88;35.97;;;17.70;99.90;;;;;;5120542;28;20383;-58
2023/09/10 04:00:24;;;;;;;42.42;36.42;;;17.60;99.90;;;;;;5119191;28;20074;-57
2023/09/10 04:02:50;;;;;;;44.92;35.88;;;17.60;99.90;;;;;;5120569;28;20443;-58
2023/09/10 04:05:16;;;;;;;40.67;34.88;;;17.60;99.90;;;;;;5119106;28;20043;-58
2023/09/10 04:07:42;;;;;;;39.40;35.10;;;17.60;99.90;;;;;;5120605;28;20071;-58
2023/09/10 04:10:08;;;;;;;39.85;33.85;;;17.60;99.90;;;;;;5119564;28;20058;-57
2023/09/10 04:12:34;;;;;;;37.60;33.30;;;17.60;99.90;;;;;;5119914;28;20123;-58
2023/09/10 04:15:00;;;;;;;39.70;35.38;;;17.60;99.90;;;;;;5119795;28;20063;-58
2023/09/10 04:17:30;;;;;;;41.35;34.60;;;17.60;99.90;;;;;;5118990;28;20047;-58
2023/09/10 04:19:56;;;;;;;39.15;33.47;;;17.60;99.90;;;;;;5120294;28;20040;-57
2023/09/10 04:22:21;;;;;;;38.78;34.63;;;17.50;99.90;;;;;;5119297;28;20472;-58
2023/09/10 04:24:47;;;;;;;37.92;33.17;;;17.60;99.90;;;;;;5120448;28;20069;-57
2023/09/10 04:27:13;;;;;;;38.92;34.10;;;17.50;99.90;;;;;;5119527;28;20047;-58
2023/09/10 04:29:38;;;;;;;38.50;33.17;;;17.50;99.90;;;;;;5119303;28;20035;-58
2023/09/10 04:32:04;;;;;;;35.75;31.88;;;17.50;99.90;;;;;;5120022;28;20051;-57
2023/09/10 04:34:30;;;;;;;38.92;33.83;;;17.50;99.90;;;;;;5118824;28;20444;-57
2023/09/10 04:36:56;;;;;;;38.03;33.15;;;17.50;99.90;;;;;;5119949;28;20073;-57
2023/09/10 04:39:22;;;;;;;39.15;34.42;;;17.50;99.90;;;;;;5118862;28;20045;-58
2023/09/10 04:41:47;;;;;;;37.47;33.38;;;17.50;99.90;;;;;;5120235;28;20043;-57
2023/09/10 04:44:13;;;;;;;38.67;33.72;;;17.50;99.90;;;;;;5118868;28;20052;-58
2023/09/10 04:46:39;;;;;;;35.72;29.77;;;17.50;99.90;;;;;;5119770;28;20054;-57
2023/09/10 04:49:05;;;;;;;36.90;32.90;;;17.50;99.90;;;;;;5119241;28;20131;-58
2023/09/10 04:51:30;;;;;;;40.00;33.17;;;17.50;99.90;;;;;;5120385;28;20074;-58
2023/09/10 04:53:56;;;;;;;37.85;33.40;;;17.40;99.90;;;;;;5124216;28;20039;-58
2023/09/10 04:56:22;;;;;;;38.33;33.55;;;17.50;99.90;;;;;;5102730;28;20047;-58
2023/09/10 04:58:48;;;;;;;36.05;32.15;;;17.40;99.90;;;;;;5103495;28;20047;-58
2023/09/10 05:01:14;;;;;;;36.35;32.45;;;17.40;99.90;;;;;;5100967;28;20044;-57
2023/09/10 05:03:41;;;;;;;36.13;30.92;;;17.40;99.90;;;;;;5103599;28;20876;-57
2023/09/10 05:06:08;;;;;;;37.53;33.28;;;17.50;99.90;;;;;;5103261;28;20147;-57
2023/09/10 05:08:34;;;;;;;38.38;32.55;;;17.50;99.90;;;;;;5102529;28;20458;-58
2023/09/10 05:11:00;;;;;;;38.50;33.00;;;17.40;99.90;;;;;;5103286;28;20047;-57
2023/09/10 05:13:25;;;;;;;39.90;33.17;;;17.40;99.90;;;;;;5102039;28;20119;-57
2023/09/10 05:15:54;;;;;;;40.33;34.60;;;17.50;99.90;;;;;;5103622;28;20043;-57
2023/09/10 05:18:20;;;;;;;37.78;33.42;;;17.40;99.90;;;;;;5101991;28;20150;-58
2023/09/10 05:20:47;;;;;;;39.63;34.30;;;17.40;99.90;;;;;;5103210;28;20040;-57
2023/09/10 05:23:13;;;;;;;41.72;33.72;;;17.50;99.90;;;;;;5103002;28;20036;-57
2023/09/10 05:25:39;;;;;;;38.97;34.50;;;17.50;99.90;;;;;;5101949;28;20407;-58
2023/09/10 05:28:04;;;;;;;42.92;35.85;;;17.50;99.90;;;;;;5102768;28;20036;-58
2023/09/10 05:30:31;;;;;;;40.85;33.33;;;17.50;99.90;;;;;;5101685;28;20055;-58
2023/09/10 05:32:57;;;;;;;38.35;31.88;;;17.50;99.90;;;;;;5103313;28;20047;-59
2023/09/10 05:35:23;;;;;;;38.05;31.95;;;17.60;99.90;;;;;;5101632;28;20048;-57
2023/09/10 05:37:48;;;;;;;36.97;31.08;;;17.60;99.90;;;;;;5102912;28;20036;-57
2023/09/10 05:40:14;;;;;;;31.48;27.65;;;17.50;99.90;;;;;;5102441;28;20043;-57
2023/09/10 05:42:40;;;;;;;31.65;28.10;;;17.50;99.90;;;;;;5101760;28;20044;-57
2023/09/10 05:45:06;;;;;;;31.17;27.77;;;17.50;99.90;;;;;;5102654;28;20075;-57
2023/09/10 05:47:32;;;;;;;31.83;28.40;;;17.50;99.90;;;;;;5101525;28;20036;-57
2023/09/10 05:50:00;;;;;;;28.50;25.45;;;17.60;99.90;;;;;;5102716;28;20054;-58
2023/09/10 05:52:26;;;;;;;27.38;24.55;;;17.60;99.90;;;;;;5101476;28;20066;-58
2023/09/10 05:54:51;;;;;;;28.20;25.25;;;17.60;99.90;;;;;;5109960;28;20048;-58
2023/09/10 05:57:17;;;;;;;26.40;23.70;;;17.60;99.90;;;;;;5118846;28;20044;-58
2023/09/10 05:59:43;;;;;;;28.08;25.10;;;17.60;99.90;;;;;;5118418;28;20428;-60
2023/09/10 06:02:09;;;;;;;29.00;25.67;;;17.70;99.90;;;;;;5118548;28;20438;-58
2023/09/10 06:04:35;;;;;;;27.88;24.88;;;17.70;99.90;;;;;;5117891;28;20075;-58
2023/09/10 06:07:03;;;;;;;27.25;24.45;;;17.70;99.90;;;;;;5118774;28;20046;-58
2023/09/10 06:09:29;;;;;;;26.23;23.63;;;17.80;99.90;;;;;;5117480;27;20036;-58
2023/09/10 06:11:55;;;;;;;25.77;23.35;;;17.80;99.90;;;;;;5118940;28;20457;-58
2023/09/10 06:14:21;;;;;;;24.65;22.15;;;17.80;99.90;;;;;;5118013;28;20402;-59
2023/09/10 06:16:47;;;;;;;26.60;23.90;;;17.80;99.90;;;;;;5118121;28;20081;-59
2023/09/10 06:19:14;;;;;;;29.38;26.38;;;17.80;99.90;;;;;;5118418;28;20035;-59
2023/09/10 06:21:40;;;;;;;31.77;28.50;;;17.80;99.90;;;;;;5117021;28;20039;-58
2023/09/10 06:24:06;;;;;;;32.97;29.48;;;17.90;99.90;;;;;;5118656;28;20082;-58
2023/09/10 06:26:32;;;;;;;33.95;30.30;;;17.90;99.90;;;;;;5117167;28;20085;-58
2023/09/10 06:28:59;;;;;;;35.75;31.85;;;18.00;99.90;;;;;;5118341;28;20051;-58
2023/09/10 06:31:24;;;;;;;35.47;31.65;;;18.00;99.90;;;;;;5117800;28;20051;-58
2023/09/10 06:33:50;;;;;;;34.28;29.92;;;18.00;99.90;;;;;;5117526;28;20088;-58
2023/09/10 06:36:16;;;;;;;33.25;29.83;;;18.10;99.90;;;;;;5118112;28;20040;-59
2023/09/10 06:38:47;;;;;;;33.78;30.15;;;18.20;99.90;;;;;;5116767;28;20048;-58
2023/09/10 06:41:14;;;;;;;33.90;30.30;;;18.20;99.90;;;;;;5112074;28;20068;-57
2023/09/10 06:43:40;;;;;;;38.22;32.92;;;18.30;99.90;;;;;;5106621;28;20108;-58
2023/09/10 06:46:06;;;;;;;35.92;32.05;;;18.40;99.90;;;;;;5100097;28;20076;-58
2023/09/10 06:48:31;;;;;;;41.55;35.20;;;18.50;99.90;;;;;;5096519;28;20044;-58
2023/09/10 06:51:00;;;;;;;39.78;35.22;;;18.50;99.90;;;;;;5096238;28;20089;-58
2023/09/10 06:53:27;;;;;;;40.90;34.72;;;18.60;99.90;;;;;;5097167;28;20059;-58
2023/09/10 06:55:54;;;;;;;41.50;34.88;;;18.70;99.90;;;;;;5112353;28;20050;-57
2023/09/10 06:58:20;;;;;;;41.35;35.55;;;18.80;99.90;;;;;;5117056;28;20067;-58
2023/09/10 07:00:46;;;;;;;43.03;37.40;;;18.90;99.90;;;;;;5099807;28;20060;-58
2023/09/10 07:03:13;;;;;;;42.95;37.28;;;18.90;99.90;;;;;;5097515;28;20039;-58
2023/09/10 07:05:40;;;;;;;45.40;39.00;;;19.10;99.90;;;;;;5096566;28;20367;-57
2023/09/10 07:08:06;;;;;;;45.00;36.92;;;19.10;99.90;;;;;;5096892;28;20043;-58
2023/09/10 07:10:33;;;;;;;44.17;37.53;;;19.20;99.90;;;;;;5096449;28;20044;-57
2023/09/10 07:12:59;;;;;;;46.17;37.45;;;19.40;99.90;;;;;;5105986;28;20190;-58
2023/09/10 07:15:25;;;;;;;41.97;36.88;;;19.40;99.90;;;;;;5105375;28;20519;-58
2023/09/10 07:17:50;;;;;;;43.63;38.83;;;19.50;99.90;;;;;;5104400;28;20043;-58
2023/09/10 07:20:16;;;;;;;42.22;37.65;;;19.60;99.90;;;;;;5114085;28;20063;-58
2023/09/10 07:22:42;;;;;;;45.22;38.53;;;19.70;99.90;;;;;;5116112;28;20046;-58
2023/09/10 07:25:08;;;;;;;44.60;37.67;;;19.80;99.90;;;;;;5117048;28;20044;-58
2023/09/10 07:27:34;;;;;;;46.90;38.67;;;19.90;99.90;;;;;;5115577;28;20047;-58
2023/09/10 07:29:59;;;;;;;44.00;39.15;;;19.90;99.90;;;;;;5116058;28;20088;-58
2023/09/10 07:32:25;;;;;;;40.92;35.67;;;20.00;99.90;;;;;;5116765;28;20128;-58
2023/09/10 07:34:51;;;;;;;42.47;37.17;;;20.10;99.90;;;;;;5115763;28;20583;-58
2023/09/10 07:37:16;;;;;;;43.72;37.28;;;20.20;99.90;;;;;;5109489;28;20044;-58
2023/09/10 07:39:43;;;;;;;42.13;37.22;;;20.30;99.90;;;;;;5095553;28;20082;-58
2023/09/10 07:42:08;;;;;;;41.55;35.70;;;20.40;99.90;;;;;;5096757;28;20040;-58
2023/09/10 07:44:34;;;;;;;42.92;38.30;;;20.50;99.90;;;;;;5095712;28;20215;-58
2023/09/10 07:47:00;;;;;;;41.17;35.80;;;20.60;99.90;;;;;;5097698;28;20054;-58
2023/09/10 07:49:26;;;;;;;45.15;38.38;;;20.70;99.90;;;;;;5095910;28;20121;-58
2023/09/10 07:51:51;;;;;;;45.28;38.50;;;20.80;99.90;;;;;;5094970;28;20495;-58
2023/09/10 07:54:17;;;;;;;43.78;38.78;;;20.90;99.90;;;;;;5098873;28;20090;-58
2023/09/10 07:56:45;;;;;;;46.55;39.55;;;20.90;99.90;;;;;;5115003;28;20073;-58
2023/09/10 07:59:11;;;;;;;43.75;39.05;;;21.00;99.90;;;;;;5116698;28;20047;-58
2023/09/10 08:01:38;;;;;;;42.28;37.75;;;21.10;99.90;;;;;;5116434;28;20073;-58
2023/09/10 08:04:04;;;;;;;41.05;36.53;;;21.20;99.90;;;;;;5115517;28;20039;-58
2023/09/10 08:06:30;;;;;;;42.55;37.00;;;21.20;99.90;;;;;;5116214;28;20036;-58
2023/09/10 08:08:57;;;;;;;39.35;35.05;;;21.30;99.90;;;;;;5115060;28;20048;-58
2023/09/10 08:11:22;;;;;;;40.35;35.97;;;21.40;99.20;;;;;;5116656;28;20130;-58
2023/09/10 08:13:48;;;;;;;39.03;34.83;;;21.50;98.50;;;;;;5114946;28;20078;-58
2023/09/10 08:16:15;;;;;;;40.60;36.17;;;21.60;97.30;;;;;;5116390;28;20062;-59
2023/09/10 08:18:41;;;;;;;38.65;34.55;;;21.70;99.00;;;;;;5115001;28;20433;-58
2023/09/10 08:21:07;;;;;;;40.53;36.15;;;21.80;97.60;;;;;;5115279;28;20054;-58
2023/09/10 08:23:33;;;;;;;38.83;34.50;;;21.80;96.80;;;;;;5115472;28;20039;-58
2023/09/10 08:25:58;;;;;;;37.35;32.92;;;21.90;95.70;;;;;;5114580;28;20043;-58
2023/09/10 08:28:24;;;;;;;37.65;33.60;;;21.90;94.70;;;;;;5116342;28;20047;-58
2023/09/10 08:30:51;;;;;;;36.17;32.28;;;21.90;93.30;;;;;;5115071;28;20044;-58
2023/09/10 08:33:17;;;;;;;36.35;32.35;;;21.90;92.20;;;;;;5115714;28;20059;-58
2023/09/10 08:35:48;;;;;;;37.10;31.92;;;22.00;92.00;;;;;;5114958;28;20055;-56
2023/09/10 08:38:14;;;;;;;32.95;29.45;;;22.10;90.60;;;;;;5115417;28;20095;-58
2023/09/10 08:40:58;;;;;;;35.17;29.50;;;22.20;90.10;;;;;;5116173;28;20051;-58
2023/09/10 08:43:47;;;;;;;34.33;30.63;;;22.20;86.30;;;;;;5114564;28;20051;-58
2023/09/10 08:46:14;;;;;;;33.15;28.00;;;22.30;85.20;;;;;;5104591;28;20051;-58
2023/09/10 08:48:41;;;;;;;33.35;28.60;;;22.40;89.90;;;;;;5115046;28;20050;-58
2023/09/10 08:51:11;;;;;;;32.75;28.23;;;22.40;86.00;;;;;;5115231;28;20050;-58
2023/09/10 08:53:39;;;;;;;30.92;27.20;;;22.50;83.40;;;;;;5115897;28;20048;-58
2023/09/10 08:56:07;;;;;;;29.00;25.88;;;22.50;75.60;;;;;;5096519;28;20693;-58
2023/09/10 08:58:37;;;;;;;29.70;24.38;;;22.60;79.60;;;;;;5094520;28;20048;-58
2023/09/10 09:01:04;;;;;;;26.65;23.33;;;22.80;74.10;;;;;;5093055;28;20044;-58
2023/09/10 09:03:30;;;;;;;25.95;23.13;;;22.80;55.50;;;;;;5079200;28;20048;-58
2023/09/10 09:06:03;;;;;;;24.63;21.80;;;22.80;55.50;;;;;;5074932;28;20048;-58
2023/09/10 09:08:34;;;;;;;24.25;21.48;;;22.90;53.60;;;;;;5074229;28;20033;-58
2023/09/10 09:11:03;;;;;;;23.58;21.00;;;23.00;54.80;;;;;;5075298;28;20048;-58
2023/09/10 09:13:33;;;;;;;24.23;21.08;;;23.10;56.20;;;;;;5072560;28;20044;-58
2023/09/10 09:16:01;;;;;;;23.95;21.35;;;23.10;49.70;;;;;;5075399;28;20076;-58
2023/09/10 09:18:28;;;;;;;22.15;19.75;;;23.10;47.60;;;;;;5086664;28;20055;-58
2023/09/10 09:20:57;;;;;;;24.05;20.15;;;23.20;45.50;;;;;;5102924;28;20040;-58
2023/09/10 09:23:28;;;;;;;22.08;19.67;;;23.30;48.40;;;;;;5093401;28;20048;-58
2023/09/10 09:25:58;;;;;;;23.13;20.33;;;23.40;44.00;;;;;;5094434;28;20052;-58
2023/09/10 09:28:26;;;;;;;26.83;19.73;;;23.40;40.30;;;;;;5095153;28;20123;-58
2023/09/10 09:30:53;;;;;;;21.95;19.52;;;23.50;42.60;;;;;;5094228;28;20373;-57
2023/09/10 09:33:19;;;;;;;25.00;19.70;;;23.50;37.40;;;;;;5095154;28;20040;-59
2023/09/10 09:35:46;;;;;;;21.75;18.60;;;23.60;43.10;;;;;;5094561;28;20044;-58
2023/09/10 09:38:15;;;;;;;19.95;17.70;;;23.60;37.50;;;;;;5096932;28;20327;-59
2023/09/10 09:40:42;;;;;;;23.63;16.95;;;23.70;32.10;;;;;;5098957;28;20060;-58
2023/09/10 09:43:09;;;;;;;21.25;16.77;;;23.80;29.90;;;;;;5096680;28;20044;-58
2023/09/10 09:45:39;;;;;;;18.67;15.95;;;23.90;30.40;;;;;;5098601;28;20078;-58
2023/09/10 09:48:08;;;;;;;20.10;17.27;;;23.90;29.60;;;;;;5096326;28;20055;-58
2023/09/10 09:50:34;;;;;;;17.88;15.95;;;23.90;20.10;;;;;;5097638;28;20055;-58
2023/09/10 09:52:59;;;;;;;18.90;16.50;;;23.90;23.80;;;;;;5098167;28;20558;-58
2023/09/10 09:55:26;;;;;;;20.30;15.07;;;24.00;21.40;;;;;;5109219;28;20052;-58
2023/09/10 09:57:52;;;;;;;16.88;14.13;;;24.20;23.00;;;;;;5118642;28;20118;-58
2023/09/10 10:00:17;;;;;;;18.10;15.57;;;24.30;23.70;;;;;;5116958;28;20116;-57
2023/09/10 10:02:44;;;;;;;18.65;15.77;;;24.40;20.00;;;;;;5118857;28;20198;-56
2023/09/10 10:05:09;;;;;;;17.63;15.68;;;24.30;15.30;;;;;;5117709;28;20058;-56
2023/09/10 10:07:40;;;;;;;16.40;14.57;;;24.40;17.70;;;;;;5119585;28;20035;-57
2023/09/10 10:10:07;;;;;;;17.50;15.55;;;24.50;17.00;;;;;;5118719;27;20044;-56
2023/09/10 10:12:33;;;;;;;18.92;16.02;;;24.60;16.70;;;;;;5118843;28;20055;-56
2023/09/10 10:14:59;;;;;;;19.67;16.50;;;24.70;11.20;;;;;;5119276;28;20043;-56
2023/09/10 10:17:26;;;;;;;16.55;14.68;;;24.60;10.90;;;;;;5118179;28;20043;-57
2023/09/10 10:19:52;;;;;;;18.80;15.10;;;24.80;13.30;;;;;;5119182;28;20095;-57
2023/09/10 10:22:19;;;;;;;14.82;13.02;;;24.80;12.10;;;;;;5117150;28;20052;-57
2023/09/10 10:24:45;;;;;;;17.77;14.98;;;24.90;7.60;;;;;;5118750;28;20117;-58
2023/09/10 10:27:13;;;;;;;18.60;14.80;;;25.00;7.30;;;;;;5118126;28;20095;-58
2023/09/10 10:29:39;;;;;;;16.70;14.65;;;25.00;4.80;;;;;;5117722;28;20048;-58
2023/09/10 10:32:12;;;;;;;18.45;14.05;;;25.00;5.40;;;;;;5118275;28;20043;-58
2023/09/10 10:34:47;;;;;;;15.65;11.70;;;25.10;4.70;;;;;;5116903;28;20055;-58
2023/09/10 10:37:24;;;;;;;16.15;11.80;;;25.20;5.00;;;;;;5118635;28;20111;-58
2023/09/10 10:40:12;;;;;;;14.48;11.40;;;25.30;1.00;;;;;;5117404;28;20070;-57
2023/09/10 10:42:57;;;;;;;15.93;11.93;;;25.30;1.00;;;;;;5116747;28;20063;-57
2023/09/10 10:45:24;;;;;;;14.95;12.35;;;25.40;1.00;;;;;;5117171;28;20058;-58
2023/09/10 10:47:50;;;;;;;13.90;11.30;;;25.40;1.00;;;;;;5116869;28;20081;-58
2023/09/10 10:50:26;;;;;;;13.70;11.85;;;25.50;1.00;;;;;;5116956;28;20095;-58
2023/09/10 10:52:59;;;;;;;17.02;11.77;;;25.60;1.00;;;;;;5098905;28;20047;-58
2023/09/10 10:55:26;;;;;;;14.65;11.25;;;25.70;1.00;;;;;;5104892;28;20513;-58
2023/09/10 10:57:55;;;;;;;16.08;12.18;;;25.80;1.00;;;;;;5096962;28;20036;-58
2023/09/10 11:00:21;;;;;;;14.10;10.82;;;25.90;1.00;;;;;;5098099;28;20044;-58
2023/09/10 11:03:13;;;;;;;14.10;10.77;;;25.90;1.00;;;;;;5100534;28;20058;-58
2023/09/10 11:06:04;;;;;;;14.45;10.43;;;26.10;1.00;;;;;;5099041;28;20051;-59
2023/09/10 11:08:38;;;;;;;15.77;11.05;;;26.20;1.00;;;;;;5098744;28;20063;-59
2023/09/10 11:11:08;;;;;;;14.80;11.57;;;26.20;1.00;;;;;;5101197;28;20044;-59
2023/09/10 11:13:58;;;;;;;17.33;11.25;;;26.10;1.00;;;;;;5099946;28;20058;-58
2023/09/10 11:16:24;;;;;;;13.68;11.23;;;26.20;1.00;;;;;;5100805;28;20039;-59
2023/09/10 11:18:51;;;;;;;14.15;11.63;;;26.30;1.00;;;;;;5102401;28;20057;-58
2023/09/10 11:21:17;;;;;;;14.13;11.10;;;26.30;1.00;;;;;;5120240;28;20052;-58
2023/09/10 11:23:52;;;;;;;15.23;10.45;;;26.20;1.00;;;;;;5121266;28;20038;-58
2023/09/10 11:26:17;;;;;;;11.25;9.77;;;26.40;1.00;;;;;;5119826;28;20052;-58
2023/09/10 11:28:46;;;;;;;18.98;10.35;;;26.40;1.00;;;;;;5121443;27;20062;-58
2023/09/10 11:31:45;;;;;;;13.68;10.45;;;26.50;1.00;;;;;;5120101;27;20045;-57
2023/09/10 11:34:17;;;;;;;11.93;9.88;;;26.50;1.00;;;;;;5120184;27;20047;-58
2023/09/10 11:36:44;;;;;;;13.93;9.30;;;26.60;1.00;;;;;;5119592;28;20055;-57
2023/09/10 11:39:10;;;;;;;11.85;9.30;;;26.70;1.00;;;;;;5119879;28;20054;-58
2023/09/10 11:41:35;;;;;;;14.10;9.02;;;26.70;1.00;;;;;;5121067;28;20035;-58
2023/09/10 11:44:01;;;;;;;9.77;8.40;;;26.70;1.00;;;;;;5119712;28;20052;-58
2023/09/10 11:46:27;;;;;;;14.00;8.85;;;26.80;1.00;;;;;;5120250;28;20043;-58
2023/09/10 11:48:53;;;;;;;10.95;8.35;;;26.70;1.00;;;;;;5111816;28;20617;-58
2023/09/10 11:51:19;;;;;;;11.02;8.35;;;26.80;1.00;;;;;;5096342;28;20039;-58
2023/09/10 11:53:45;;;;;;;12.70;8.90;;;26.90;1.00;;;;;;5096246;28;20130;-58
2023/09/10 11:56:11;;;;;;;11.45;8.63;;;26.80;1.00;;;;;;5113224;28;20047;-58
2023/09/10 11:58:37;;;;;;;12.93;7.80;;;26.80;1.00;;;;;;5116639;28;20511;-58
2023/09/10 12:01:03;;;;;;;12.93;7.95;;;26.80;1.00;;;;;;5108080;27;20047;-58
2023/09/10 12:03:30;;;;;;;14.35;9.20;;;27.00;1.00;;;;;;5115810;28;20054;-58
2023/09/10 12:06:00;;;;;;;11.68;8.75;;;26.90;1.00;;;;;;5115986;28;20043;-58
2023/09/10 12:08:26;;;;;;;12.35;8.98;;;27.00;1.00;;;;;;5114129;28;20054;-58
2023/09/10 12:10:58;;;;;;;10.95;7.90;;;27.00;1.00;;;;;;5116322;28;20088;-58
2023/09/10 12:13:24;;;;;;;14.13;8.88;;;27.20;1.00;;;;;;5115132;28;20046;-58
2023/09/10 12:15:52;;;;;;;11.48;7.30;;;27.10;1.00;;;;;;5116017;28;20082;-58
2023/09/10 12:18:19;;;;;;;13.88;8.38;;;27.10;1.00;;;;;;5115199;28;20043;-57
2023/09/10 12:20:45;;;;;;;13.57;8.70;;;27.20;1.00;;;;;;5116691;28;20425;-58
2023/09/10 12:23:10;;;;;;;13.02;8.73;;;27.20;1.00;;;;;;5116204;28;20067;-57
2023/09/10 12:25:36;;;;;;;14.05;8.30;;;27.20;1.00;;;;;;5115226;28;20055;-58
2023/09/10 12:28:02;;;;;;;13.07;8.15;;;27.20;1.00;;;;;;5115874;28;20040;-57
2023/09/10 12:30:28;;;;;;;13.07;7.63;;;27.10;1.00;;;;;;5115116;28;20047;-58
2023/09/10 12:32:54;;;;;;;13.23;7.55;;;27.30;1.00;;;;;;5116400;28;20602;-58